Terminal Aerodrome Forecast
Issued by NWS

Home | Current Version | Previous Version | Text Only | Print | Product List | Glossary On
Versions: 1 2 3 4 5 6 7 8 9 10 11 12 13 14
000
FTUS43 KIND 060527
TAFBMG
TAF
KBMG 060527Z 0606/0706 11008KT P6SM OVC140
     FM060800 10005KT P6SM VCSH OVC070
     FM061000 09005KT 6SM -RA OVC025
     FM061500 36004KT 3SM -RA OVC008
     FM061800 32007KT P6SM BKN015
     FM070200 30007KT P6SM BKN050
      AMD LTD TO CLD VIS AND WIND TIL 061400=

USA.gov is the U.S. government's official web portal to all federal, state and local government web resources and services.